sensor_id;sensor_type;location;lat;lon;timestamp;P1;durP1;ratioP1;P2;durP2;ratioP2
16288;SDS011;26089;43.538;5.250;2022-11-15T00:01:19;7.63;;;6.93;;
16288;SDS011;26089;43.538;5.250;2022-11-15T00:03:46;8.60;;;7.80;;
16288;SDS011;26089;43.538;5.250;2022-11-15T00:06:18;8.30;;;7.50;;
16288;SDS011;26089;43.538;5.250;2022-11-15T00:08:45;8.87;;;7.73;;
16288;SDS011;26089;43.538;5.250;2022-11-15T00:11:12;8.03;;;7.23;;
16288;SDS011;26089;43.538;5.250;2022-11-15T00:13:39;8.10;;;6.80;;
16288;SDS011;26089;43.538;5.250;2022-11-15T00:16:06;8.50;;;7.60;;
16288;SDS011;26089;43.538;5.250;2022-11-15T00:18:35;9.03;;;8.03;;
16288;SDS011;26089;43.538;5.250;2022-11-15T00:21:03;8.97;;;7.63;;
16288;SDS011;26089;43.538;5.250;2022-11-15T00:23:33;8.27;;;7.40;;
16288;SDS011;26089;43.538;5.250;2022-11-15T00:26:00;8.07;;;7.23;;
16288;SDS011;26089;43.538;5.250;2022-11-15T00:28:28;8.53;;;7.60;;
16288;SDS011;26089;43.538;5.250;2022-11-15T00:30:59;8.67;;;7.27;;
16288;SDS011;26089;43.538;5.250;2022-11-15T00:33:27;9.40;;;8.40;;
16288;SDS011;26089;43.538;5.250;2022-11-15T00:35:59;9.00;;;7.80;;
16288;SDS011;26089;43.538;5.250;2022-11-15T00:38:29;10.10;;;8.03;;
16288;SDS011;26089;43.538;5.250;2022-11-15T00:40:58;9.03;;;8.07;;
16288;SDS011;26089;43.538;5.250;2022-11-15T00:43:25;8.50;;;7.70;;
16288;SDS011;26089;43.538;5.250;2022-11-15T00:45:53;8.90;;;8.00;;
16288;SDS011;26089;43.538;5.250;2022-11-15T00:48:20;10.37;;;7.60;;
16288;SDS011;26089;43.538;5.250;2022-11-15T00:50:48;8.40;;;7.53;;
16288;SDS011;26089;43.538;5.250;2022-11-15T00:53:15;9.33;;;8.07;;
16288;SDS011;26089;43.538;5.250;2022-11-15T00:55:42;9.10;;;7.87;;
16288;SDS011;26089;43.538;5.250;2022-11-15T00:58:11;8.40;;;7.50;;
16288;SDS011;26089;43.538;5.250;2022-11-15T01:00:38;9.23;;;7.53;;
16288;SDS011;26089;43.538;5.250;2022-11-15T01:03:05;7.40;;;6.70;;
16288;SDS011;26089;43.538;5.250;2022-11-15T01:05:32;8.23;;;7.43;;
16288;SDS011;26089;43.538;5.250;2022-11-15T01:07:59;8.17;;;7.37;;
16288;SDS011;26089;43.538;5.250;2022-11-15T01:10:26;9.37;;;8.27;;
16288;SDS011;26089;43.538;5.250;2022-11-15T01:12:53;8.63;;;7.40;;
16288;SDS011;26089;43.538;5.250;2022-11-15T01:15:21;8.87;;;7.97;;
16288;SDS011;26089;43.538;5.250;2022-11-15T01:17:48;8.77;;;7.87;;
16288;SDS011;26089;43.538;5.250;2022-11-15T01:20:15;9.40;;;8.17;;
16288;SDS011;26089;43.538;5.250;2022-11-15T01:22:42;8.93;;;8.00;;
16288;SDS011;26089;43.538;5.250;2022-11-15T01:25:09;9.10;;;7.60;;
16288;SDS011;26089;43.538;5.250;2022-11-15T01:27:36;8.50;;;7.60;;
16288;SDS011;26089;43.538;5.250;2022-11-15T01:30:04;8.80;;;7.27;;
16288;SDS011;26089;43.538;5.250;2022-11-15T01:32:33;9.23;;;8.27;;
16288;SDS011;26089;43.538;5.250;2022-11-15T01:35:00;10.37;;;8.10;;
16288;SDS011;26089;43.538;5.250;2022-11-15T01:37:27;9.23;;;8.33;;
16288;SDS011;26089;43.538;5.250;2022-11-15T01:39:54;10.37;;;8.97;;
16288;SDS011;26089;43.538;5.250;2022-11-15T01:42:21;8.37;;;7.17;;
16288;SDS011;26089;43.538;5.250;2022-11-15T01:44:49;8.53;;;7.60;;
16288;SDS011;26089;43.538;5.250;2022-11-15T01:47:17;9.23;;;8.10;;
16288;SDS011;26089;43.538;5.250;2022-11-15T01:49:51;9.17;;;8.27;;
16288;SDS011;26089;43.538;5.250;2022-11-15T01:52:22;9.53;;;7.27;;
16288;SDS011;26089;43.538;5.250;2022-11-15T01:54:53;7.97;;;7.20;;
16288;SDS011;26089;43.538;5.250;2022-11-15T01:57:22;8.13;;;7.33;;
16288;SDS011;26089;43.538;5.250;2022-11-15T01:59:49;7.40;;;6.70;;
16288;SDS011;26089;43.538;5.250;2022-11-15T02:02:17;8.37;;;7.40;;
16288;SDS011;26089;43.538;5.250;2022-11-15T02:04:45;8.50;;;7.70;;
16288;SDS011;26089;43.538;5.250;2022-11-15T02:07:15;11.43;;;7.17;;
16288;SDS011;26089;43.538;5.250;2022-11-15T02:09:44;7.60;;;6.90;;
16288;SDS011;26089;43.538;5.250;2022-11-15T02:12:13;7.03;;;6.33;;
16288;SDS011;26089;43.538;5.250;2022-11-15T02:14:43;7.77;;;7.07;;
16288;SDS011;26089;43.538;5.250;2022-11-15T02:17:17;9.17;;;7.40;;
16288;SDS011;26089;43.538;5.250;2022-11-15T02:23:11;7.03;;;6.33;;
16288;SDS011;26089;43.538;5.250;2022-11-15T02:25:57;7.70;;;6.90;;
16288;SDS011;26089;43.538;5.250;2022-11-15T02:28:46;6.60;;;6.00;;
16288;SDS011;26089;43.538;5.250;2022-11-15T02:31:22;7.03;;;6.00;;
16288;SDS011;26089;43.538;5.250;2022-11-15T02:33:56;7.63;;;6.87;;
16288;SDS011;26089;43.538;5.250;2022-11-15T02:36:34;7.90;;;6.40;;
16288;SDS011;26089;43.538;5.250;2022-11-15T02:39:07;6.50;;;5.90;;
16288;SDS011;26089;43.538;5.250;2022-11-15T02:41:42;6.27;;;5.73;;
16288;SDS011;26089;43.538;5.250;2022-11-15T02:44:15;6.27;;;5.73;;
16288;SDS011;26089;43.538;5.250;2022-11-15T02:46:48;6.70;;;6.10;;
16288;SDS011;26089;43.538;5.250;2022-11-15T02:49:36;6.50;;;5.90;;
16288;SDS011;26089;43.538;5.250;2022-11-15T02:52:05;5.93;;;5.43;;
16288;SDS011;26089;43.538;5.250;2022-11-15T02:54:33;6.83;;;6.23;;
16288;SDS011;26089;43.538;5.250;2022-11-15T02:57:01;6.10;;;5.50;;
16288;SDS011;26089;43.538;5.250;2022-11-15T03:02:51;6.27;;;5.67;;
16288;SDS011;26089;43.538;5.250;2022-11-15T03:05:34;6.33;;;5.67;;
16288;SDS011;26089;43.538;5.250;2022-11-15T03:08:08;6.30;;;5.80;;
16288;SDS011;26089;43.538;5.250;2022-11-15T03:10:42;6.13;;;5.53;;
16288;SDS011;26089;43.538;5.250;2022-11-15T03:13:21;6.37;;;5.77;;
16288;SDS011;26089;43.538;5.250;2022-11-15T03:15:53;5.67;;;5.17;;
16288;SDS011;26089;43.538;5.250;2022-11-15T03:18:30;6.33;;;5.73;;
16288;SDS011;26089;43.538;5.250;2022-11-15T03:20:59;6.80;;;5.40;;
16288;SDS011;26089;43.538;5.250;2022-11-15T03:23:30;5.77;;;5.27;;
16288;SDS011;26089;43.538;5.250;2022-11-15T03:25:59;6.07;;;5.50;;
16288;SDS011;26089;43.538;5.250;2022-11-15T03:28:28;6.30;;;5.70;;
16288;SDS011;26089;43.538;5.250;2022-11-15T03:31:00;6.27;;;5.37;;
16288;SDS011;26089;43.538;5.250;2022-11-15T03:33:53;6.77;;;5.80;;
16288;SDS011;26089;43.538;5.250;2022-11-15T03:36:23;5.67;;;5.13;;
16288;SDS011;26089;43.538;5.250;2022-11-15T03:38:52;5.67;;;4.97;;
16288;SDS011;26089;43.538;5.250;2022-11-15T03:41:22;6.30;;;5.40;;
16288;SDS011;26089;43.538;5.250;2022-11-15T03:43:54;6.17;;;5.57;;
16288;SDS011;26089;43.538;5.250;2022-11-15T03:46:26;6.10;;;5.60;;
16288;SDS011;26089;43.538;5.250;2022-11-15T03:49:00;7.73;;;5.43;;
16288;SDS011;26089;43.538;5.250;2022-11-15T03:51:33;5.50;;;5.00;;
16288;SDS011;26089;43.538;5.250;2022-11-15T03:54:02;6.67;;;5.37;;
16288;SDS011;26089;43.538;5.250;2022-11-15T03:56:30;8.63;;;6.63;;
16288;SDS011;26089;43.538;5.250;2022-11-15T03:58:57;5.80;;;5.30;;
16288;SDS011;26089;43.538;5.250;2022-11-15T04:01:24;5.27;;;4.87;;
16288;SDS011;26089;43.538;5.250;2022-11-15T04:03:51;5.93;;;5.33;;
16288;SDS011;26089;43.538;5.250;2022-11-15T04:06:19;6.00;;;5.50;;
16288;SDS011;26089;43.538;5.250;2022-11-15T04:08:46;6.13;;;5.60;;
16288;SDS011;26089;43.538;5.250;2022-11-15T04:11:13;6.20;;;5.70;;
16288;SDS011;26089;43.538;5.250;2022-11-15T04:13:40;6.10;;;5.60;;
16288;SDS011;26089;43.538;5.250;2022-11-15T04:16:07;6.47;;;5.87;;
16288;SDS011;26089;43.538;5.250;2022-11-15T04:18:34;5.73;;;5.23;;
16288;SDS011;26089;43.538;5.250;2022-11-15T04:21:02;6.50;;;6.00;;
16288;SDS011;26089;43.538;5.250;2022-11-15T04:23:47;5.70;;;5.10;;
16288;SDS011;26089;43.538;5.250;2022-11-15T04:26:32;5.73;;;5.23;;
16288;SDS011;26089;43.538;5.250;2022-11-15T04:28:59;5.60;;;5.10;;
16288;SDS011;26089;43.538;5.250;2022-11-15T04:31:43;6.57;;;5.03;;
16288;SDS011;26089;43.538;5.250;2022-11-15T04:34:10;5.93;;;5.40;;
16288;SDS011;26089;43.538;5.250;2022-11-15T04:36:37;5.50;;;5.10;;
16288;SDS011;26089;43.538;5.250;2022-11-15T04:39:23;5.70;;;5.10;;
16288;SDS011;26089;43.538;5.250;2022-11-15T04:41:50;6.20;;;5.60;;
16288;SDS011;26089;43.538;5.250;2022-11-15T04:44:17;5.83;;;5.33;;
16288;SDS011;26089;43.538;5.250;2022-11-15T04:46:44;6.37;;;5.63;;
16288;SDS011;26089;43.538;5.250;2022-11-15T04:49:11;5.90;;;5.30;;
16288;SDS011;26089;43.538;5.250;2022-11-15T04:51:38;6.33;;;5.20;;
16288;SDS011;26089;43.538;5.250;2022-11-15T04:54:05;5.60;;;5.10;;
16288;SDS011;26089;43.538;5.250;2022-11-15T04:56:34;5.80;;;5.20;;
16288;SDS011;26089;43.538;5.250;2022-11-15T04:59:01;6.13;;;5.13;;
16288;SDS011;26089;43.538;5.250;2022-11-15T05:01:28;5.80;;;5.30;;
16288;SDS011;26089;43.538;5.250;2022-11-15T05:03:55;5.47;;;4.93;;
16288;SDS011;26089;43.538;5.250;2022-11-15T05:06:39;5.80;;;5.30;;
16288;SDS011;26089;43.538;5.250;2022-11-15T05:09:06;7.43;;;5.47;;
16288;SDS011;26089;43.538;5.250;2022-11-15T05:11:35;6.40;;;5.77;;
16288;SDS011;26089;43.538;5.250;2022-11-15T05:14:02;6.27;;;5.67;;
16288;SDS011;26089;43.538;5.250;2022-11-15T05:16:29;5.73;;;5.23;;
16288;SDS011;26089;43.538;5.250;2022-11-15T05:18:56;5.90;;;5.40;;
16288;SDS011;26089;43.538;5.250;2022-11-15T05:21:23;5.37;;;4.87;;
16288;SDS011;26089;43.538;5.250;2022-11-15T05:23:50;5.83;;;5.33;;
16288;SDS011;26089;43.538;5.250;2022-11-15T05:26:17;6.20;;;5.60;;
16288;SDS011;26089;43.538;5.250;2022-11-15T05:28:46;5.50;;;5.10;;
16288;SDS011;26089;43.538;5.250;2022-11-15T05:31:17;5.47;;;4.97;;
16288;SDS011;26089;43.538;5.250;2022-11-15T05:33:44;6.57;;;4.93;;
16288;SDS011;26089;43.538;5.250;2022-11-15T05:36:13;6.40;;;5.80;;
16288;SDS011;26089;43.538;5.250;2022-11-15T05:38:44;6.30;;;5.67;;
16288;SDS011;26089;43.538;5.250;2022-11-15T05:41:11;5.87;;;5.37;;
16288;SDS011;26089;43.538;5.250;2022-11-15T05:43:39;5.80;;;5.30;;
16288;SDS011;26089;43.538;5.250;2022-11-15T05:46:09;6.13;;;5.63;;
16288;SDS011;26089;43.538;5.250;2022-11-15T05:48:37;6.30;;;5.70;;
16288;SDS011;26089;43.538;5.250;2022-11-15T05:51:06;6.27;;;5.67;;
16288;SDS011;26089;43.538;5.250;2022-11-15T05:53:34;6.47;;;5.87;;
16288;SDS011;26089;43.538;5.250;2022-11-15T05:56:02;7.03;;;6.33;;
16288;SDS011;26089;43.538;5.250;2022-11-15T05:58:30;6.53;;;5.80;;
16288;SDS011;26089;43.538;5.250;2022-11-15T06:00:58;7.03;;;6.13;;
16288;SDS011;26089;43.538;5.250;2022-11-15T06:03:27;6.07;;;5.57;;
16288;SDS011;26089;43.538;5.250;2022-11-15T06:05:55;6.53;;;5.93;;
16288;SDS011;26089;43.538;5.250;2022-11-15T06:08:22;6.53;;;6.00;;
16288;SDS011;26089;43.538;5.250;2022-11-15T06:10:49;6.27;;;5.57;;
16288;SDS011;26089;43.538;5.250;2022-11-15T06:13:16;7.20;;;6.47;;
16288;SDS011;26089;43.538;5.250;2022-11-15T06:15:43;7.10;;;5.87;;
16288;SDS011;26089;43.538;5.250;2022-11-15T06:18:11;6.47;;;5.87;;
16288;SDS011;26089;43.538;5.250;2022-11-15T06:20:39;8.13;;;6.47;;
16288;SDS011;26089;43.538;5.250;2022-11-15T06:23:06;6.70;;;6.00;;
16288;SDS011;26089;43.538;5.250;2022-11-15T06:25:33;6.87;;;5.90;;
16288;SDS011;26089;43.538;5.250;2022-11-15T06:28:00;6.83;;;6.23;;
16288;SDS011;26089;43.538;5.250;2022-11-15T06:30:27;6.83;;;6.23;;
16288;SDS011;26089;43.538;5.250;2022-11-15T06:33:01;7.93;;;6.30;;
16288;SDS011;26089;43.538;5.250;2022-11-15T06:35:28;8.50;;;6.93;;
16288;SDS011;26089;43.538;5.250;2022-11-15T06:38:02;7.33;;;5.90;;
16288;SDS011;26089;43.538;5.250;2022-11-15T06:40:32;6.33;;;5.73;;
16288;SDS011;26089;43.538;5.250;2022-11-15T06:43:00;7.73;;;6.37;;
16288;SDS011;26089;43.538;5.250;2022-11-15T06:45:28;7.73;;;7.03;;
16288;SDS011;26089;43.538;5.250;2022-11-15T06:47:55;8.10;;;6.57;;
16288;SDS011;26089;43.538;5.250;2022-11-15T06:50:22;8.40;;;7.50;;
16288;SDS011;26089;43.538;5.250;2022-11-15T06:52:49;7.00;;;6.30;;
16288;SDS011;26089;43.538;5.250;2022-11-15T06:55:18;8.07;;;6.13;;
16288;SDS011;26089;43.538;5.250;2022-11-15T06:57:48;7.07;;;6.37;;
16288;SDS011;26089;43.538;5.250;2022-11-15T07:00:16;7.30;;;6.70;;
16288;SDS011;26089;43.538;5.250;2022-11-15T07:02:44;8.33;;;5.57;;
16288;SDS011;26089;43.538;5.250;2022-11-15T07:05:12;6.87;;;6.07;;
16288;SDS011;26089;43.538;5.250;2022-11-15T07:07:40;7.70;;;6.43;;
16288;SDS011;26089;43.538;5.250;2022-11-15T07:10:07;9.37;;;6.77;;
16288;SDS011;26089;43.538;5.250;2022-11-15T07:12:36;6.80;;;6.10;;
16288;SDS011;26089;43.538;5.250;2022-11-15T07:15:04;6.50;;;5.67;;
16288;SDS011;26089;43.538;5.250;2022-11-15T07:17:31;8.70;;;6.20;;
16288;SDS011;26089;43.538;5.250;2022-11-15T07:19:58;8.47;;;6.57;;
16288;SDS011;26089;43.538;5.250;2022-11-15T07:22:26;6.47;;;5.87;;
16288;SDS011;26089;43.538;5.250;2022-11-15T07:24:53;8.70;;;7.70;;
16288;SDS011;26089;43.538;5.250;2022-11-15T07:27:20;6.97;;;6.20;;
16288;SDS011;26089;43.538;5.250;2022-11-15T07:29:48;6.97;;;6.17;;
16288;SDS011;26089;43.538;5.250;2022-11-15T07:32:15;6.87;;;6.17;;
16288;SDS011;26089;43.538;5.250;2022-11-15T07:34:42;6.77;;;6.10;;
16288;SDS011;26089;43.538;5.250;2022-11-15T07:37:11;7.03;;;6.33;;
16288;SDS011;26089;43.538;5.250;2022-11-15T07:39:39;7.63;;;6.43;;
16288;SDS011;26089;43.538;5.250;2022-11-15T07:42:06;7.13;;;6.47;;
16288;SDS011;26089;43.538;5.250;2022-11-15T07:44:52;7.00;;;6.30;;
16288;SDS011;26089;43.538;5.250;2022-11-15T07:47:19;6.97;;;6.20;;
16288;SDS011;26089;43.538;5.250;2022-11-15T07:49:46;6.80;;;6.10;;
16288;SDS011;26089;43.538;5.250;2022-11-15T07:52:13;7.47;;;6.57;;
16288;SDS011;26089;43.538;5.250;2022-11-15T07:54:40;8.43;;;6.13;;
16288;SDS011;26089;43.538;5.250;2022-11-15T07:57:07;7.70;;;6.60;;
16288;SDS011;26089;43.538;5.250;2022-11-15T07:59:35;7.17;;;6.47;;
16288;SDS011;26089;43.538;5.250;2022-11-15T08:02:03;8.60;;;6.80;;
16288;SDS011;26089;43.538;5.250;2022-11-15T08:04:30;7.73;;;6.97;;
16288;SDS011;26089;43.538;5.250;2022-11-15T08:06:58;7.40;;;6.70;;
16288;SDS011;26089;43.538;5.250;2022-11-15T08:09:25;8.53;;;7.63;;
16288;SDS011;26089;43.538;5.250;2022-11-15T08:11:52;7.27;;;6.53;;
16288;SDS011;26089;43.538;5.250;2022-11-15T08:14:19;8.77;;;6.50;;
16288;SDS011;26089;43.538;5.250;2022-11-15T08:16:47;8.80;;;7.20;;
16288;SDS011;26089;43.538;5.250;2022-11-15T08:19:15;7.63;;;6.77;;
16288;SDS011;26089;43.538;5.250;2022-11-15T08:21:42;8.80;;;6.70;;
16288;SDS011;26089;43.538;5.250;2022-11-15T08:24:10;6.90;;;6.20;;
16288;SDS011;26089;43.538;5.250;2022-11-15T08:26:37;9.27;;;6.67;;
16288;SDS011;26089;43.538;5.250;2022-11-15T08:29:05;6.57;;;5.73;;
16288;SDS011;26089;43.538;5.250;2022-11-15T08:31:32;10.00;;;6.80;;
16288;SDS011;26089;43.538;5.250;2022-11-15T08:34:00;8.60;;;7.10;;
16288;SDS011;26089;43.538;5.250;2022-11-15T08:36:28;10.63;;;6.77;;
16288;SDS011;26089;43.538;5.250;2022-11-15T08:38:55;7.17;;;6.47;;
16288;SDS011;26089;43.538;5.250;2022-11-15T08:41:24;7.83;;;6.33;;
16288;SDS011;26089;43.538;5.250;2022-11-15T08:43:54;8.93;;;6.30;;
16288;SDS011;26089;43.538;5.250;2022-11-15T08:46:21;8.33;;;6.13;;
16288;SDS011;26089;43.538;5.250;2022-11-15T08:48:48;7.10;;;6.40;;
16288;SDS011;26089;43.538;5.250;2022-11-15T08:51:15;7.07;;;6.27;;
16288;SDS011;26089;43.538;5.250;2022-11-15T08:53:44;9.57;;;6.70;;
16288;SDS011;26089;43.538;5.250;2022-11-15T08:56:12;7.53;;;5.90;;
16288;SDS011;26089;43.538;5.250;2022-11-15T08:58:40;8.50;;;6.50;;
16288;SDS011;26089;43.538;5.250;2022-11-15T09:01:13;6.70;;;5.70;;
16288;SDS011;26089;43.538;5.250;2022-11-15T09:03:41;9.83;;;6.83;;
16288;SDS011;26089;43.538;5.250;2022-11-15T09:06:08;6.70;;;6.10;;
16288;SDS011;26089;43.538;5.250;2022-11-15T09:08:36;6.40;;;5.80;;
16288;SDS011;26089;43.538;5.250;2022-11-15T09:11:05;7.47;;;6.07;;
16288;SDS011;26089;43.538;5.250;2022-11-15T09:13:33;7.23;;;5.77;;
16288;SDS011;26089;43.538;5.250;2022-11-15T09:16:02;6.60;;;6.00;;
16288;SDS011;26089;43.538;5.250;2022-11-15T09:18:30;7.40;;;6.70;;
16288;SDS011;26089;43.538;5.250;2022-11-15T09:20:58;6.37;;;5.77;;
16288;SDS011;26089;43.538;5.250;2022-11-15T09:23:25;7.03;;;6.03;;
16288;SDS011;26089;43.538;5.250;2022-11-15T09:25:57;6.47;;;5.87;;
16288;SDS011;26089;43.538;5.250;2022-11-15T09:28:26;6.23;;;5.73;;
16288;SDS011;26089;43.538;5.250;2022-11-15T09:30:55;12.67;;;6.83;;
16288;SDS011;26089;43.538;5.250;2022-11-15T09:33:24;7.30;;;6.13;;
16288;SDS011;26089;43.538;5.250;2022-11-15T09:35:51;6.63;;;5.93;;
16288;SDS011;26089;43.538;5.250;2022-11-15T09:38:19;7.20;;;6.50;;
16288;SDS011;26089;43.538;5.250;2022-11-15T09:40:47;8.80;;;6.23;;
16288;SDS011;26089;43.538;5.250;2022-11-15T09:43:28;7.93;;;6.00;;
16288;SDS011;26089;43.538;5.250;2022-11-15T09:46:03;7.57;;;6.20;;
16288;SDS011;26089;43.538;5.250;2022-11-15T09:48:44;6.27;;;5.67;;
16288;SDS011;26089;43.538;5.250;2022-11-15T09:51:20;8.67;;;5.77;;
16288;SDS011;26089;43.538;5.250;2022-11-15T09:53:54;7.83;;;5.90;;
16288;SDS011;26089;43.538;5.250;2022-11-15T09:56:26;6.83;;;5.57;;
16288;SDS011;26089;43.538;5.250;2022-11-15T09:58:58;6.33;;;5.37;;
16288;SDS011;26089;43.538;5.250;2022-11-15T10:01:37;5.83;;;5.33;;
16288;SDS011;26089;43.538;5.250;2022-11-15T10:04:10;6.47;;;5.87;;
16288;SDS011;26089;43.538;5.250;2022-11-15T10:06:38;6.80;;;5.63;;
16288;SDS011;26089;43.538;5.250;2022-11-15T10:09:13;6.00;;;5.40;;
16288;SDS011;26089;43.538;5.250;2022-11-15T10:11:43;7.13;;;5.93;;
16288;SDS011;26089;43.538;5.250;2022-11-15T10:14:13;6.67;;;5.53;;
16288;SDS011;26089;43.538;5.250;2022-11-15T10:19:34;9.03;;;5.73;;
16288;SDS011;26089;43.538;5.250;2022-11-15T10:22:16;6.90;;;6.20;;
16288;SDS011;26089;43.538;5.250;2022-11-15T10:24:50;7.50;;;5.93;;
16288;SDS011;26089;43.538;5.250;2022-11-15T10:27:19;8.87;;;5.90;;
16288;SDS011;26089;43.538;5.250;2022-11-15T10:29:48;6.37;;;5.47;;
16288;SDS011;26089;43.538;5.250;2022-11-15T10:32:17;8.13;;;5.27;;
16288;SDS011;26089;43.538;5.250;2022-11-15T10:34:45;6.27;;;5.20;;
16288;SDS011;26089;43.538;5.250;2022-11-15T10:37:13;8.97;;;5.10;;
16288;SDS011;26089;43.538;5.250;2022-11-15T10:39:40;6.17;;;5.57;;
16288;SDS011;26089;43.538;5.250;2022-11-15T10:42:17;7.47;;;5.03;;
16288;SDS011;26089;43.538;5.250;2022-11-15T10:44:53;6.00;;;5.33;;
16288;SDS011;26089;43.538;5.250;2022-11-15T10:47:22;5.10;;;4.60;;
16288;SDS011;26089;43.538;5.250;2022-11-15T10:49:55;6.03;;;5.00;;
16288;SDS011;26089;43.538;5.250;2022-11-15T10:52:23;6.63;;;5.37;;
16288;SDS011;26089;43.538;5.250;2022-11-15T10:54:52;5.40;;;4.90;;
16288;SDS011;26089;43.538;5.250;2022-11-15T10:57:24;5.47;;;4.90;;
16288;SDS011;26089;43.538;5.250;2022-11-15T10:59:55;5.97;;;5.37;;
16288;SDS011;26089;43.538;5.250;2022-11-15T11:02:29;5.80;;;5.20;;
16288;SDS011;26089;43.538;5.250;2022-11-15T11:04:58;6.73;;;4.70;;
16288;SDS011;26089;43.538;5.250;2022-11-15T11:07:26;6.57;;;4.90;;
16288;SDS011;26089;43.538;5.250;2022-11-15T11:09:58;5.47;;;4.90;;
16288;SDS011;26089;43.538;5.250;2022-11-15T11:12:27;5.30;;;4.57;;
16288;SDS011;26089;43.538;5.250;2022-11-15T11:14:58;8.17;;;5.30;;
16288;SDS011;26089;43.538;5.250;2022-11-15T11:17:32;6.00;;;4.83;;
16288;SDS011;26089;43.538;5.250;2022-11-15T11:20:18;6.17;;;4.83;;
16288;SDS011;26089;43.538;5.250;2022-11-15T11:22:57;6.20;;;4.73;;
16288;SDS011;26089;43.538;5.250;2022-11-15T11:25:33;7.23;;;4.77;;
16288;SDS011;26089;43.538;5.250;2022-11-15T11:31:09;5.07;;;4.60;;
16288;SDS011;26089;43.538;5.250;2022-11-15T11:33:44;6.70;;;4.70;;
16288;SDS011;26089;43.538;5.250;2022-11-15T11:36:19;5.57;;;4.40;;
16288;SDS011;26089;43.538;5.250;2022-11-15T11:38:56;5.03;;;4.60;;
16288;SDS011;26089;43.538;5.250;2022-11-15T11:41:43;7.37;;;4.53;;
16288;SDS011;26089;43.538;5.250;2022-11-15T11:44:20;5.43;;;4.77;;
16288;SDS011;26089;43.538;5.250;2022-11-15T11:46:58;5.23;;;4.53;;
16288;SDS011;26089;43.538;5.250;2022-11-15T11:49:29;6.57;;;4.53;;
16288;SDS011;26089;43.538;5.250;2022-11-15T11:52:02;4.30;;;3.93;;
16288;SDS011;26089;43.538;5.250;2022-11-15T11:54:38;6.43;;;4.07;;
16288;SDS011;26089;43.538;5.250;2022-11-15T11:57:13;5.00;;;4.07;;
16288;SDS011;26089;43.538;5.250;2022-11-15T11:59:49;5.67;;;4.33;;
16288;SDS011;26089;43.538;5.250;2022-11-15T12:02:28;5.10;;;4.23;;
16288;SDS011;26089;43.538;5.250;2022-11-15T12:05:01;5.50;;;4.10;;
16288;SDS011;26089;43.538;5.250;2022-11-15T12:07:35;6.17;;;3.97;;
16288;SDS011;26089;43.538;5.250;2022-11-15T12:10:11;5.90;;;4.63;;
16288;SDS011;26089;43.538;5.250;2022-11-15T12:12:47;5.13;;;4.53;;
16288;SDS011;26089;43.538;5.250;2022-11-15T12:15:20;5.40;;;4.30;;
16288;SDS011;26089;43.538;5.250;2022-11-15T12:17:52;4.47;;;3.87;;
16288;SDS011;26089;43.538;5.250;2022-11-15T12:20:22;6.33;;;4.20;;
16288;SDS011;26089;43.538;5.250;2022-11-15T12:22:52;4.53;;;4.13;;
16288;SDS011;26089;43.538;5.250;2022-11-15T12:25:23;5.63;;;4.70;;
16288;SDS011;26089;43.538;5.250;2022-11-15T12:27:56;5.70;;;4.83;;
16288;SDS011;26089;43.538;5.250;2022-11-15T12:30:29;7.10;;;5.13;;
16288;SDS011;26089;43.538;5.250;2022-11-15T12:33:27;5.57;;;5.10;;
16288;SDS011;26089;43.538;5.250;2022-11-15T12:36:01;6.47;;;4.60;;
16288;SDS011;26089;43.538;5.250;2022-11-15T12:41:25;4.40;;;4.00;;
16288;SDS011;26089;43.538;5.250;2022-11-15T12:43:53;6.83;;;4.90;;
16288;SDS011;26089;43.538;5.250;2022-11-15T12:49:43;9.00;;;4.97;;
16288;SDS011;26089;43.538;5.250;2022-11-15T12:52:12;5.47;;;4.53;;
16288;SDS011;26089;43.538;5.250;2022-11-15T12:54:55;6.60;;;4.10;;
16288;SDS011;26089;43.538;5.250;2022-11-15T12:57:32;5.50;;;4.57;;
16288;SDS011;26089;43.538;5.250;2022-11-15T13:03:18;6.27;;;4.40;;
16288;SDS011;26089;43.538;5.250;2022-11-15T13:08:59;5.30;;;3.83;;
16288;SDS011;26089;43.538;5.250;2022-11-15T13:11:42;4.63;;;4.17;;
16288;SDS011;26089;43.538;5.250;2022-11-15T13:20:14;5.63;;;4.20;;
16288;SDS011;26089;43.538;5.250;2022-11-15T13:22:52;4.80;;;4.40;;
16288;SDS011;26089;43.538;5.250;2022-11-15T13:25:44;5.13;;;4.20;;
16288;SDS011;26089;43.538;5.250;2022-11-15T13:28:32;5.60;;;3.80;;
16288;SDS011;26089;43.538;5.250;2022-11-15T13:31:03;5.03;;;3.93;;
16288;SDS011;26089;43.538;5.250;2022-11-15T13:33:48;4.27;;;3.83;;
16288;SDS011;26089;43.538;5.250;2022-11-15T13:36:18;7.40;;;4.50;;
16288;SDS011;26089;43.538;5.250;2022-11-15T13:38:54;5.43;;;3.67;;
16288;SDS011;26089;43.538;5.250;2022-11-15T13:41:25;5.27;;;4.00;;
16288;SDS011;26089;43.538;5.250;2022-11-15T13:43:54;5.40;;;4.00;;
16288;SDS011;26089;43.538;5.250;2022-11-15T13:46:22;4.77;;;4.37;;
16288;SDS011;26089;43.538;5.250;2022-11-15T13:48:51;5.70;;;4.07;;
16288;SDS011;26089;43.538;5.250;2022-11-15T13:51:21;5.07;;;4.30;;
16288;SDS011;26089;43.538;5.250;2022-11-15T13:53:52;7.03;;;4.53;;
16288;SDS011;26089;43.538;5.250;2022-11-15T13:56:24;5.03;;;4.30;;
16288;SDS011;26089;43.538;5.250;2022-11-15T13:58:53;6.17;;;3.70;;
16288;SDS011;26089;43.538;5.250;2022-11-15T14:01:20;6.00;;;4.77;;
16288;SDS011;26089;43.538;5.250;2022-11-15T14:03:52;6.37;;;4.37;;
16288;SDS011;26089;43.538;5.250;2022-11-15T14:06:22;4.20;;;3.90;;
16288;SDS011;26089;43.538;5.250;2022-11-15T14:09:15;5.57;;;4.20;;
16288;SDS011;26089;43.538;5.250;2022-11-15T14:12:00;5.03;;;4.40;;
16288;SDS011;26089;43.538;5.250;2022-11-15T14:14:28;7.13;;;4.43;;
16288;SDS011;26089;43.538;5.250;2022-11-15T14:16:57;5.47;;;3.87;;
16288;SDS011;26089;43.538;5.250;2022-11-15T14:19:36;4.40;;;4.00;;
16288;SDS011;26089;43.538;5.250;2022-11-15T14:22:14;6.70;;;4.43;;
16288;SDS011;26089;43.538;5.250;2022-11-15T14:24:55;5.37;;;3.80;;
16288;SDS011;26089;43.538;5.250;2022-11-15T14:27:43;5.30;;;4.10;;
16288;SDS011;26089;43.538;5.250;2022-11-15T14:30:14;5.93;;;4.70;;
16288;SDS011;26089;43.538;5.250;2022-11-15T14:32:44;5.27;;;3.90;;
16288;SDS011;26089;43.538;5.250;2022-11-15T14:35:14;4.57;;;4.00;;
16288;SDS011;26089;43.538;5.250;2022-11-15T14:37:43;5.87;;;3.83;;
16288;SDS011;26089;43.538;5.250;2022-11-15T14:40:12;6.93;;;4.17;;
16288;SDS011;26089;43.538;5.250;2022-11-15T14:42:40;5.03;;;4.53;;
16288;SDS011;26089;43.538;5.250;2022-11-15T14:45:11;4.63;;;4.10;;
16288;SDS011;26089;43.538;5.250;2022-11-15T14:47:40;4.30;;;3.87;;
16288;SDS011;26089;43.538;5.250;2022-11-15T14:50:10;5.07;;;4.03;;
16288;SDS011;26089;43.538;5.250;2022-11-15T14:52:38;6.23;;;4.37;;
16288;SDS011;26089;43.538;5.250;2022-11-15T14:55:10;6.30;;;3.90;;
16288;SDS011;26089;43.538;5.250;2022-11-15T14:57:44;6.87;;;4.30;;
16288;SDS011;26089;43.538;5.250;2022-11-15T15:00:12;5.43;;;4.17;;
16288;SDS011;26089;43.538;5.250;2022-11-15T15:02:40;7.07;;;4.47;;
16288;SDS011;26089;43.538;5.250;2022-11-15T15:05:15;4.40;;;4.00;;
16288;SDS011;26089;43.538;5.250;2022-11-15T15:07:44;5.03;;;4.20;;
16288;SDS011;26089;43.538;5.250;2022-11-15T15:10:11;5.03;;;4.37;;
16288;SDS011;26089;43.538;5.250;2022-11-15T15:12:39;5.83;;;4.60;;
16288;SDS011;26089;43.538;5.250;2022-11-15T15:15:10;4.87;;;4.27;;
16288;SDS011;26089;43.538;5.250;2022-11-15T15:17:40;7.20;;;4.67;;
16288;SDS011;26089;43.538;5.250;2022-11-15T15:20:07;5.50;;;4.00;;
16288;SDS011;26089;43.538;5.250;2022-11-15T15:22:35;6.83;;;4.23;;
16288;SDS011;26089;43.538;5.250;2022-11-15T15:25:07;6.53;;;4.73;;
16288;SDS011;26089;43.538;5.250;2022-11-15T15:27:46;6.93;;;4.70;;
16288;SDS011;26089;43.538;5.250;2022-11-15T15:30:14;5.73;;;5.17;;
16288;SDS011;26089;43.538;5.250;2022-11-15T15:32:41;8.93;;;4.57;;
16288;SDS011;26089;43.538;5.250;2022-11-15T15:35:10;6.17;;;4.90;;
16288;SDS011;26089;43.538;5.250;2022-11-15T15:37:38;6.30;;;5.20;;
16288;SDS011;26089;43.538;5.250;2022-11-15T15:40:10;7.73;;;5.53;;